Mount Moriah, Missouri
Current Conditions -  °F | °C
As of 3:53 AM on Tuesday 21 Oct 2014 (Local Time) from KLWD Reporting Station
Clear Clear  
Wind Chill:   Ceiling: Unl
Heat Index:   Visibility: 10mi
Dew Point:   Wind: 5mph
Humidity: 74%   Direction: 340°NNW
Pressure: 30.08"   Gusts: NA
Location:  40.33°N, 93.8°W
Report Text: KLWD 210853Z AUTO 34004KT 10SM CLR 08/04 A3008 RMK AO2 SLP186 T00830039 51007
Loading
Personal Weather Stations






























Interactive Weather Map
Tropical Storm Tracking
New forecast layout! Learn more

10-Day Weather Forecast

Advertisements
Track Severe Weather on mobile